KQA1023 DGAA-FACT
Flight info
| Callsign | KQA1023 |
|---|---|
| Flight time | N/A |
| Altitude | 35000 |
| Route | ACC UY149 GANBI DCT 05S004E 10S005E 15S006E 18S007E 23S010E DCT UVGOD UQ14 UVIKU Q35 ASPIK ASPIK1C |
| Aircraft | A21N/M-SDE2E3FGHIRWXY/LB1 |
Departure
| Time | N/A |
|---|---|
| Airport | Kotoka International Airport (DGAA) |
Arrival
| Time | 2026-05-04 09:53 |
|---|---|
| Airport | Cape Town International Airport (FACT) |
| Time | Latitude | Longitude | Altitude | Speed | Heading |
|---|---|---|---|---|---|
| 2026-05-04 05:29 | -3.16549 | 3.33853 | 34909 ft | 444 kts | 160° |
| 2026-05-04 05:31 | -3.40066 | 3.42318 | 34936 ft | 448 kts | 160° |
| 2026-05-04 05:32 | -3.45977 | 3.44445 | 34935 ft | 448 kts | 160° |
| 2026-05-04 05:33 | -3.54854 | 3.47640 | 34935 ft | 448 kts | 160° |
| 2026-05-04 05:33 | -3.60749 | 3.49763 | 34936 ft | 448 kts | 160° |
| 2026-05-04 05:34 | -3.66652 | 3.51887 | 34933 ft | 449 kts | 160° |
| 2026-05-04 05:34 | -3.72582 | 3.54022 | 34939 ft | 449 kts | 160° |
| 2026-05-04 05:35 | -3.78496 | 3.56153 | 34934 ft | 449 kts | 160° |
| 2026-05-04 05:35 | -3.84404 | 3.58281 | 34936 ft | 449 kts | 160° |
| 2026-05-04 05:36 | -3.90274 | 3.60396 | 34936 ft | 448 kts | 160° |
| 2026-05-04 05:36 | -3.96210 | 3.62535 | 34936 ft | 449 kts | 160° |
| 2026-05-04 05:37 | -4.02121 | 3.64663 | 34936 ft | 449 kts | 160° |
| 2026-05-04 05:37 | -4.08019 | 3.66789 | 34936 ft | 449 kts | 160° |
| 2026-05-04 05:38 | -4.16889 | 3.69987 | 34934 ft | 449 kts | 160° |
| 2026-05-04 05:38 | -4.22810 | 3.72122 | 34936 ft | 449 kts | 160° |
| 2026-05-04 05:39 | -4.31659 | 3.75313 | 34937 ft | 449 kts | 160° |
| 2026-05-04 05:40 | -4.40517 | 3.78508 | 34936 ft | 449 kts | 160° |
| 2026-05-04 05:40 | -4.46419 | 3.80638 | 34936 ft | 448 kts | 160° |
| 2026-05-04 05:41 | -4.52338 | 3.82774 | 34934 ft | 449 kts | 160° |
| 2026-05-04 05:41 | -4.58271 | 3.84916 | 34932 ft | 449 kts | 160° |
| 2026-05-04 05:42 | -4.64182 | 3.87050 | 34930 ft | 449 kts | 160° |
| 2026-05-04 05:42 | -4.70082 | 3.89180 | 34931 ft | 449 kts | 160° |
| 2026-05-04 05:43 | -4.75965 | 3.91304 | 34931 ft | 449 kts | 160° |
| 2026-05-04 05:45 | -4.99688 | 3.99738 | 34921 ft | 449 kts | 164° |
| 2026-05-04 05:47 | -5.24268 | 4.04800 | 34915 ft | 449 kts | 169° |
| 2026-05-04 05:47 | -5.30434 | 4.06020 | 34917 ft | 450 kts | 169° |
| 2026-05-04 05:48 | -5.36602 | 4.07242 | 34919 ft | 450 kts | 169° |
| 2026-05-04 05:48 | -5.42804 | 4.08470 | 34925 ft | 450 kts | 169° |
| 2026-05-04 05:49 | -5.48965 | 4.09691 | 34926 ft | 451 kts | 169° |
| 2026-05-04 05:49 | -5.55164 | 4.10920 | 34929 ft | 451 kts | 169° |
| 2026-05-04 05:51 | -5.79914 | 4.15830 | 34934 ft | 451 kts | 169° |
| 2026-05-04 05:52 | -5.86110 | 4.17060 | 34935 ft | 451 kts | 169° |
| 2026-05-04 05:52 | -5.92305 | 4.18289 | 34935 ft | 452 kts | 169° |
| 2026-05-04 05:54 | -6.17100 | 4.23215 | 34935 ft | 451 kts | 169° |
| 2026-05-04 05:55 | -6.23275 | 4.24442 | 34935 ft | 451 kts | 169° |
| 2026-05-04 05:55 | -6.29494 | 4.25679 | 34935 ft | 451 kts | 169° |
| 2026-05-04 05:56 | -6.35691 | 4.26912 | 34935 ft | 452 kts | 169° |
| 2026-05-04 05:56 | -6.41867 | 4.28139 | 34934 ft | 451 kts | 169° |
| 2026-05-04 05:57 | -6.48047 | 4.29368 | 34934 ft | 450 kts | 168° |
| 2026-05-04 05:57 | -6.54247 | 4.30601 | 34934 ft | 450 kts | 168° |
| 2026-05-04 05:58 | -6.60410 | 4.31827 | 34932 ft | 452 kts | 168° |
| 2026-05-04 05:58 | -6.66645 | 4.33069 | 34934 ft | 453 kts | 168° |
| 2026-05-04 05:59 | -6.72869 | 4.34310 | 34932 ft | 453 kts | 168° |
| 2026-05-04 05:59 | -6.79092 | 4.35550 | 34934 ft | 454 kts | 168° |
| 2026-05-04 06:00 | -6.85331 | 4.36793 | 34933 ft | 455 kts | 168° |
| 2026-05-04 06:00 | -6.91557 | 4.38035 | 34934 ft | 454 kts | 168° |
| 2026-05-04 06:01 | -6.97818 | 4.39286 | 34934 ft | 453 kts | 168° |
| 2026-05-04 06:03 | -7.22681 | 4.44245 | 34951 ft | 452 kts | 168° |
| 2026-05-04 06:05 | -7.50565 | 4.49814 | 34955 ft | 451 kts | 168° |
| 2026-05-04 06:06 | -7.56791 | 4.51059 | 34955 ft | 452 kts | 169° |
| 2026-05-04 06:06 | -7.62976 | 4.52296 | 34955 ft | 452 kts | 169° |
| 2026-05-04 06:07 | -7.69166 | 4.53533 | 34956 ft | 451 kts | 169° |
| 2026-05-04 06:07 | -7.75401 | 4.54781 | 34955 ft | 452 kts | 169° |
| 2026-05-04 06:08 | -7.81597 | 4.56019 | 34955 ft | 455 kts | 169° |
| 2026-05-04 06:08 | -7.87892 | 4.57277 | 34956 ft | 457 kts | 168° |
| 2026-05-04 06:09 | -7.94144 | 4.58531 | 34955 ft | 457 kts | 169° |
| 2026-05-04 06:11 | -8.19168 | 4.63545 | 34946 ft | 457 kts | 169° |
| 2026-05-04 06:13 | -8.44381 | 4.68609 | 34942 ft | 460 kts | 169° |
| 2026-05-04 06:14 | -8.66475 | 4.73047 | 34947 ft | 461 kts | 169° |
| 2026-05-04 06:15 | -8.72820 | 4.74321 | 34947 ft | 461 kts | 169° |
| 2026-05-04 06:15 | -8.79144 | 4.75594 | 34950 ft | 462 kts | 169° |
| 2026-05-04 06:16 | -8.85494 | 4.76872 | 34951 ft | 462 kts | 169° |
| 2026-05-04 06:16 | -8.91830 | 4.78148 | 34952 ft | 462 kts | 169° |
| 2026-05-04 06:17 | -8.98181 | 4.79427 | 34953 ft | 462 kts | 169° |
| 2026-05-04 06:17 | -9.04487 | 4.80697 | 34957 ft | 463 kts | 169° |
| 2026-05-04 06:18 | -9.10866 | 4.81982 | 34955 ft | 463 kts | 169° |
| 2026-05-04 06:20 | -9.36290 | 4.87111 | 34958 ft | 463 kts | 169° |
| 2026-05-04 06:21 | -9.52222 | 4.90327 | 34957 ft | 465 kts | 170° |
| 2026-05-04 06:22 | -9.58574 | 4.91611 | 34958 ft | 465 kts | 170° |
| 2026-05-04 06:25 | -10.03275 | 5.00648 | 34975 ft | 466 kts | 171° |
| 2026-05-04 06:26 | -10.09681 | 5.01902 | 34974 ft | 465 kts | 171° |
| 2026-05-04 06:26 | -10.16040 | 5.03146 | 34977 ft | 465 kts | 171° |
| 2026-05-04 06:27 | -10.32030 | 5.06289 | 34976 ft | 467 kts | 171° |
| 2026-05-04 06:28 | -10.38453 | 5.07554 | 34976 ft | 466 kts | 171° |
| 2026-05-04 06:28 | -10.44846 | 5.08813 | 34977 ft | 466 kts | 171° |
| 2026-05-04 06:29 | -10.51258 | 5.10074 | 34978 ft | 466 kts | 171° |
| 2026-05-04 06:29 | -10.57651 | 5.11334 | 34978 ft | 466 kts | 171° |
| 2026-05-04 06:30 | -10.64049 | 5.12595 | 34977 ft | 467 kts | 171° |
| 2026-05-04 06:30 | -10.70482 | 5.13863 | 34978 ft | 467 kts | 171° |
| 2026-05-04 06:31 | -10.76884 | 5.15127 | 34979 ft | 466 kts | 171° |
| 2026-05-04 06:31 | -10.83285 | 5.16391 | 34977 ft | 466 kts | 171° |
| 2026-05-04 06:33 | -11.08948 | 5.21461 | 34978 ft | 466 kts | 171° |
| 2026-05-04 06:34 | -11.15348 | 5.22728 | 34979 ft | 467 kts | 171° |
| 2026-05-04 06:34 | -11.21730 | 5.23991 | 34981 ft | 466 kts | 171° |
| 2026-05-04 06:36 | -11.47396 | 5.29075 | 34986 ft | 467 kts | 171° |
| 2026-05-04 06:37 | -11.53839 | 5.30354 | 34988 ft | 467 kts | 171° |
| 2026-05-04 06:37 | -11.60237 | 5.31624 | 34984 ft | 467 kts | 171° |
| 2026-05-04 06:38 | -11.66657 | 5.32899 | 34987 ft | 468 kts | 171° |
| 2026-05-04 06:40 | -11.92354 | 5.38008 | 34996 ft | 468 kts | 172° |
| 2026-05-04 06:40 | -11.98769 | 5.39284 | 34998 ft | 468 kts | 172° |
| 2026-05-04 06:41 | -12.05184 | 5.40560 | 34998 ft | 469 kts | 171° |
| 2026-05-04 06:41 | -12.11648 | 5.41848 | 35001 ft | 468 kts | 172° |
| 2026-05-04 06:42 | -12.18039 | 5.43121 | 34998 ft | 468 kts | 171° |
| 2026-05-04 06:44 | -12.43780 | 5.48260 | 34999 ft | 468 kts | 172° |
| 2026-05-04 06:44 | -12.50175 | 5.49537 | 34999 ft | 468 kts | 172° |
| 2026-05-04 06:45 | -12.56621 | 5.50825 | 34999 ft | 469 kts | 172° |
| 2026-05-04 06:45 | -12.63057 | 5.52111 | 35000 ft | 468 kts | 172° |
| 2026-05-04 06:46 | -12.69490 | 5.53400 | 34998 ft | 468 kts | 172° |
| 2026-05-04 06:46 | -12.75898 | 5.54682 | 35001 ft | 468 kts | 172° |
| 2026-05-04 06:48 | -13.01607 | 5.59837 | 35007 ft | 468 kts | 172° |
| 2026-05-04 06:50 | -13.27379 | 5.65015 | 35010 ft | 469 kts | 172° |
| 2026-05-04 06:51 | -13.33785 | 5.66303 | 35010 ft | 469 kts | 172° |
| 2026-05-04 06:51 | -13.40255 | 5.67607 | 35006 ft | 469 kts | 172° |
| 2026-05-04 06:52 | -13.46698 | 5.68903 | 35003 ft | 469 kts | 172° |
| 2026-05-04 06:52 | -13.53117 | 5.70196 | 35004 ft | 469 kts | 172° |
| 2026-05-04 06:53 | -13.59567 | 5.71498 | 35006 ft | 469 kts | 172° |
| 2026-05-04 06:53 | -13.66015 | 5.72797 | 35011 ft | 469 kts | 172° |
| 2026-05-04 06:54 | -13.72464 | 5.74100 | 35010 ft | 469 kts | 172° |
| 2026-05-04 06:54 | -13.78899 | 5.75399 | 35013 ft | 470 kts | 172° |
| 2026-05-04 06:55 | -13.85316 | 5.76695 | 35014 ft | 470 kts | 172° |
| 2026-05-04 06:55 | -13.91788 | 5.78006 | 35013 ft | 470 kts | 172° |
| 2026-05-04 06:57 | -14.17592 | 5.83229 | 35005 ft | 470 kts | 172° |
| 2026-05-04 06:58 | -14.24003 | 5.84527 | 35003 ft | 470 kts | 172° |
| 2026-05-04 06:58 | -14.30487 | 5.85844 | 35006 ft | 469 kts | 172° |
| 2026-05-04 06:59 | -14.36934 | 5.87153 | 35007 ft | 470 kts | 172° |
| 2026-05-04 06:59 | -14.43379 | 5.88462 | 35007 ft | 469 kts | 172° |
| 2026-05-04 07:01 | -14.69142 | 5.93703 | 35012 ft | 470 kts | 172° |
| 2026-05-04 07:02 | -14.75590 | 5.95017 | 35015 ft | 470 kts | 172° |
| 2026-05-04 07:02 | -14.82049 | 5.96335 | 35014 ft | 470 kts | 172° |
| 2026-05-04 07:03 | -14.88487 | 5.97648 | 35014 ft | 471 kts | 172° |
| 2026-05-04 07:03 | -14.94924 | 5.98962 | 35014 ft | 471 kts | 172° |
| 2026-05-04 07:04 | -15.01361 | 6.00462 | 35018 ft | 473 kts | 167° |
| 2026-05-04 07:04 | -15.07694 | 6.02487 | 35031 ft | 474 kts | 166° |
| 2026-05-04 07:05 | -15.13977 | 6.04565 | 35036 ft | 474 kts | 166° |
| 2026-05-04 07:05 | -15.20297 | 6.06654 | 35040 ft | 473 kts | 166° |
| 2026-05-04 07:06 | -15.29751 | 6.09767 | 35039 ft | 474 kts | 166° |
| 2026-05-04 07:07 | -15.36089 | 6.11853 | 35039 ft | 474 kts | 166° |
| 2026-05-04 07:09 | -15.61359 | 6.20184 | 35036 ft | 475 kts | 166° |
| 2026-05-04 07:09 | -15.67661 | 6.22265 | 35034 ft | 475 kts | 166° |
| 2026-05-04 07:10 | -15.74024 | 6.24369 | 35030 ft | 476 kts | 166° |
| 2026-05-04 07:12 | -15.99335 | 6.32747 | 35031 ft | 475 kts | 166° |
| 2026-05-04 07:12 | -16.05706 | 6.34858 | 35030 ft | 476 kts | 166° |
| 2026-05-04 07:13 | -16.12036 | 6.36959 | 35031 ft | 477 kts | 166° |
| 2026-05-04 07:13 | -16.18398 | 6.39071 | 35033 ft | 477 kts | 166° |
| 2026-05-04 07:14 | -16.34277 | 6.44350 | 35037 ft | 477 kts | 166° |
| 2026-05-04 07:15 | -16.40623 | 6.46461 | 35037 ft | 477 kts | 166° |
| 2026-05-04 07:15 | -16.46939 | 6.48563 | 35035 ft | 477 kts | 167° |
| 2026-05-04 07:16 | -16.53308 | 6.50687 | 35040 ft | 478 kts | 167° |
| 2026-05-04 07:16 | -16.59664 | 6.52806 | 35037 ft | 477 kts | 167° |
| 2026-05-04 07:17 | -16.66023 | 6.54929 | 35039 ft | 477 kts | 167° |
| 2026-05-04 07:17 | -16.72379 | 6.57051 | 35039 ft | 478 kts | 167° |
| 2026-05-04 07:18 | -16.78756 | 6.59182 | 35040 ft | 478 kts | 167° |
| 2026-05-04 07:18 | -16.85096 | 6.61301 | 35044 ft | 478 kts | 167° |
| 2026-05-04 07:19 | -16.91488 | 6.63441 | 35044 ft | 478 kts | 167° |
| 2026-05-04 07:19 | -16.97839 | 6.65567 | 35042 ft | 479 kts | 167° |
| 2026-05-04 07:20 | -17.04199 | 6.67699 | 35043 ft | 479 kts | 167° |
| 2026-05-04 07:20 | -17.10576 | 6.69838 | 35044 ft | 479 kts | 167° |
| 2026-05-04 07:22 | -17.36171 | 6.78438 | 35049 ft | 480 kts | 167° |
| 2026-05-04 07:23 | -17.42530 | 6.80578 | 35049 ft | 480 kts | 167° |
| 2026-05-04 07:23 | -17.48918 | 6.82730 | 35050 ft | 480 kts | 167° |
| 2026-05-04 07:24 | -17.55339 | 6.84895 | 35052 ft | 480 kts | 167° |
| 2026-05-04 07:24 | -17.61720 | 6.87045 | 35051 ft | 480 kts | 167° |
| 2026-05-04 07:26 | -17.87280 | 6.95688 | 35054 ft | 480 kts | 167° |
| 2026-05-04 07:27 | -17.93640 | 6.97842 | 35058 ft | 480 kts | 167° |
| 2026-05-04 07:27 | -18.00014 | 7.00280 | 35058 ft | 485 kts | 162° |
| 2026-05-04 07:28 | -18.06087 | 7.03452 | 35060 ft | 490 kts | 156° |
| 2026-05-04 07:28 | -18.12090 | 7.06949 | 35061 ft | 489 kts | 156° |
| 2026-05-04 07:29 | -18.18046 | 7.10426 | 35059 ft | 489 kts | 156° |
| 2026-05-04 07:29 | -18.24028 | 7.13907 | 35062 ft | 490 kts | 156° |
| 2026-05-04 07:30 | -18.30015 | 7.17386 | 35059 ft | 490 kts | 156° |
| 2026-05-04 07:30 | -18.36008 | 7.20867 | 35058 ft | 491 kts | 156° |
| 2026-05-04 07:31 | -18.42006 | 7.24357 | 35060 ft | 491 kts | 156° |
| 2026-05-04 07:33 | -18.66000 | 7.38340 | 35061 ft | 492 kts | 156° |
| 2026-05-04 07:33 | -18.72007 | 7.41847 | 35055 ft | 492 kts | 156° |
| 2026-05-04 07:34 | -18.78047 | 7.45377 | 35056 ft | 493 kts | 156° |
| 2026-05-04 07:34 | -18.84049 | 7.48889 | 35057 ft | 493 kts | 157° |
| 2026-05-04 07:35 | -18.90052 | 7.52402 | 35057 ft | 493 kts | 156° |
| 2026-05-04 07:35 | -18.96080 | 7.55936 | 35054 ft | 492 kts | 157° |
| 2026-05-04 07:36 | -19.02071 | 7.59446 | 35053 ft | 493 kts | 156° |
| 2026-05-04 07:38 | -19.26211 | 7.73634 | 35069 ft | 494 kts | 156° |
| 2026-05-04 07:38 | -19.32233 | 7.77180 | 35070 ft | 495 kts | 157° |
| 2026-05-04 07:39 | -19.38255 | 7.80728 | 35073 ft | 495 kts | 157° |
| 2026-05-04 07:39 | -19.44333 | 7.84313 | 35071 ft | 496 kts | 157° |
| 2026-05-04 07:40 | -19.50372 | 7.87877 | 35071 ft | 496 kts | 157° |
| 2026-05-04 07:40 | -19.56409 | 7.91446 | 35072 ft | 496 kts | 157° |
| 2026-05-04 07:41 | -19.62478 | 7.95034 | 35071 ft | 497 kts | 157° |
| 2026-05-04 07:41 | -19.68535 | 7.98621 | 35070 ft | 496 kts | 157° |
| 2026-05-04 07:42 | -19.74589 | 8.02209 | 35075 ft | 498 kts | 157° |
| 2026-05-04 07:42 | -19.80679 | 8.05818 | 35078 ft | 498 kts | 158° |
| 2026-05-04 07:43 | -19.86730 | 8.09408 | 35077 ft | 499 kts | 158° |
| 2026-05-04 07:43 | -19.92795 | 8.13011 | 35078 ft | 498 kts | 157° |
| 2026-05-04 07:44 | -19.98875 | 8.16627 | 35080 ft | 498 kts | 158° |
| 2026-05-04 07:44 | -20.04927 | 8.20229 | 35077 ft | 498 kts | 158° |
| 2026-05-04 07:45 | -20.11028 | 8.23861 | 35080 ft | 498 kts | 158° |
| 2026-05-04 07:45 | -20.17108 | 8.27486 | 35082 ft | 498 kts | 158° |
| 2026-05-04 07:46 | -20.23171 | 8.31103 | 35080 ft | 499 kts | 158° |
| 2026-05-04 07:46 | -20.29247 | 8.34731 | 35082 ft | 500 kts | 158° |
| 2026-05-04 07:47 | -20.35341 | 8.38375 | 35085 ft | 500 kts | 158° |
| 2026-05-04 07:49 | -20.59753 | 8.52998 | 35092 ft | 502 kts | 158° |
| 2026-05-04 07:49 | -20.65869 | 8.56671 | 35091 ft | 504 kts | 158° |
| 2026-05-04 07:50 | -20.72006 | 8.60359 | 35093 ft | 505 kts | 158° |
| 2026-05-04 07:50 | -20.78124 | 8.64043 | 35095 ft | 504 kts | 158° |
| 2026-05-04 07:51 | -20.84243 | 8.67727 | 35096 ft | 504 kts | 158° |
| 2026-05-04 07:51 | -20.90379 | 8.71424 | 35097 ft | 505 kts | 158° |
| 2026-05-04 07:52 | -20.96527 | 8.75136 | 35102 ft | 505 kts | 158° |
| 2026-05-04 07:52 | -21.02658 | 8.78837 | 35103 ft | 506 kts | 158° |
| 2026-05-04 07:54 | -21.27302 | 8.93755 | 35099 ft | 507 kts | 158° |
| 2026-05-04 07:55 | -21.33465 | 8.97495 | 35102 ft | 507 kts | 158° |
| 2026-05-04 07:55 | -21.39621 | 9.01235 | 35100 ft | 506 kts | 158° |
| 2026-05-04 07:56 | -21.45737 | 9.04955 | 35100 ft | 506 kts | 158° |
| 2026-05-04 07:56 | -21.51892 | 9.08699 | 35099 ft | 507 kts | 158° |
| 2026-05-04 07:57 | -21.58081 | 9.12468 | 35097 ft | 507 kts | 158° |
| 2026-05-04 07:57 | -21.64228 | 9.16218 | 35099 ft | 508 kts | 158° |
| 2026-05-04 07:58 | -21.70389 | 9.19980 | 35098 ft | 508 kts | 158° |
| 2026-05-04 07:58 | -21.76547 | 9.23743 | 35098 ft | 507 kts | 158° |
| 2026-05-04 07:59 | -21.82711 | 9.27511 | 35098 ft | 508 kts | 158° |
| 2026-05-04 07:59 | -21.88877 | 9.31287 | 35099 ft | 508 kts | 158° |
| 2026-05-04 08:00 | -21.95067 | 9.35078 | 35099 ft | 509 kts | 158° |
| 2026-05-04 08:02 | -22.19750 | 9.50244 | 35102 ft | 509 kts | 158° |
| 2026-05-04 08:02 | -22.25910 | 9.54041 | 35105 ft | 508 kts | 158° |
| 2026-05-04 08:03 | -22.32073 | 9.57840 | 35105 ft | 509 kts | 158° |
| 2026-05-04 08:03 | -22.38212 | 9.61628 | 35107 ft | 508 kts | 158° |
| 2026-05-04 08:04 | -22.44376 | 9.65439 | 35104 ft | 507 kts | 157° |
| 2026-05-04 08:04 | -22.50542 | 9.69252 | 35102 ft | 508 kts | 157° |
| 2026-05-04 08:05 | -22.56674 | 9.73047 | 35098 ft | 508 kts | 157° |
| 2026-05-04 08:05 | -22.62836 | 9.76869 | 35105 ft | 509 kts | 157° |
| 2026-05-04 08:06 | -22.68994 | 9.80689 | 35099 ft | 509 kts | 157° |
| 2026-05-04 08:06 | -22.75178 | 9.84530 | 35104 ft | 510 kts | 157° |
| 2026-05-04 08:08 | -22.99810 | 9.99927 | 35099 ft | 512 kts | 154° |
| 2026-05-04 08:11 | -23.26296 | 10.20044 | 35104 ft | 515 kts | 150° |
| 2026-05-04 08:11 | -23.35111 | 10.26789 | 35101 ft | 515 kts | 150° |
| 2026-05-04 08:12 | -23.40987 | 10.31293 | 35110 ft | 514 kts | 151° |
| 2026-05-04 08:12 | -23.46858 | 10.35797 | 35106 ft | 513 kts | 151° |
| 2026-05-04 08:13 | -23.52693 | 10.40277 | 35110 ft | 514 kts | 151° |
| 2026-05-04 08:13 | -23.58545 | 10.44779 | 35113 ft | 513 kts | 151° |
| 2026-05-04 08:14 | -23.64391 | 10.49279 | 35109 ft | 513 kts | 150° |
| 2026-05-04 08:16 | -23.87731 | 10.67297 | 35112 ft | 513 kts | 150° |
| 2026-05-04 08:16 | -23.93582 | 10.71827 | 35119 ft | 512 kts | 150° |
| 2026-05-04 08:17 | -23.99388 | 10.76328 | 35117 ft | 512 kts | 150° |
| 2026-05-04 08:17 | -24.05242 | 10.80869 | 35117 ft | 512 kts | 150° |
| 2026-05-04 08:19 | -24.28528 | 10.98992 | 35122 ft | 513 kts | 150° |
| 2026-05-04 08:20 | -24.34385 | 11.03563 | 35127 ft | 513 kts | 150° |
| 2026-05-04 08:20 | -24.40187 | 11.08095 | 35118 ft | 512 kts | 150° |
| 2026-05-04 08:21 | -24.46016 | 11.12656 | 35119 ft | 512 kts | 150° |
| 2026-05-04 08:21 | -24.51853 | 11.17228 | 35121 ft | 512 kts | 150° |
| 2026-05-04 08:22 | -24.57650 | 11.21769 | 35107 ft | 514 kts | 150° |
| 2026-05-04 08:24 | -24.80961 | 11.40102 | 35103 ft | 512 kts | 150° |
| 2026-05-04 08:24 | -24.86777 | 11.44687 | 35108 ft | 513 kts | 149° |
| 2026-05-04 08:25 | -24.92586 | 11.49274 | 35103 ft | 513 kts | 150° |
| 2026-05-04 08:25 | -24.98410 | 11.53881 | 35100 ft | 513 kts | 150° |
| 2026-05-04 08:27 | -25.21653 | 11.72310 | 35115 ft | 513 kts | 149° |
| 2026-05-04 08:28 | -25.27459 | 11.76924 | 35118 ft | 514 kts | 149° |
| 2026-05-04 08:28 | -25.33297 | 11.81575 | 35112 ft | 514 kts | 149° |
| 2026-05-04 08:29 | -25.39128 | 11.86222 | 35119 ft | 514 kts | 149° |
| 2026-05-04 08:31 | -25.62385 | 12.04820 | 35115 ft | 516 kts | 149° |
| 2026-05-04 08:33 | -25.85704 | 12.23557 | 35123 ft | 518 kts | 149° |
| 2026-05-04 08:35 | -26.09107 | 12.42463 | 35115 ft | 517 kts | 149° |
| 2026-05-04 08:35 | -26.14925 | 12.47177 | 35117 ft | 518 kts | 149° |
| 2026-05-04 08:37 | -26.35378 | 12.63795 | 35109 ft | 518 kts | 149° |
| 2026-05-04 08:38 | -26.41205 | 12.68542 | 35098 ft | 518 kts | 148° |
| 2026-05-04 08:38 | -26.47063 | 12.73319 | 35105 ft | 519 kts | 148° |
| 2026-05-04 08:40 | -26.70419 | 12.92436 | 35095 ft | 520 kts | 148° |
| 2026-05-04 08:41 | -26.76265 | 12.97237 | 35099 ft | 520 kts | 148° |
| 2026-05-04 08:41 | -26.82099 | 13.02035 | 35099 ft | 520 kts | 148° |
| 2026-05-04 08:42 | -26.87915 | 13.06823 | 35102 ft | 520 kts | 148° |
| 2026-05-04 08:42 | -26.93763 | 13.11650 | 35102 ft | 519 kts | 148° |
| 2026-05-04 08:43 | -26.99599 | 13.16463 | 35103 ft | 521 kts | 148° |
| 2026-05-04 08:43 | -27.05454 | 13.21298 | 35111 ft | 521 kts | 148° |
| 2026-05-04 08:44 | -27.11308 | 13.26147 | 35110 ft | 521 kts | 148° |
| 2026-05-04 08:46 | -27.34683 | 13.45557 | 35107 ft | 521 kts | 148° |
| 2026-05-04 08:46 | -27.40512 | 13.50413 | 35114 ft | 522 kts | 148° |
| 2026-05-04 08:47 | -27.46382 | 13.55312 | 35117 ft | 521 kts | 148° |
| 2026-05-04 08:47 | -27.52200 | 13.60168 | 35117 ft | 521 kts | 148° |
| 2026-05-04 08:48 | -27.58045 | 13.65060 | 35113 ft | 521 kts | 148° |
| 2026-05-04 08:48 | -27.63876 | 13.69945 | 35105 ft | 522 kts | 148° |
| 2026-05-04 08:49 | -27.69728 | 13.74851 | 35107 ft | 523 kts | 148° |
| 2026-05-04 08:50 | -27.87282 | 13.89618 | 34970 ft | 523 kts | 148° |
| 2026-05-04 08:50 | -27.90212 | 13.92086 | 35049 ft | 525 kts | 148° |
| 2026-05-04 08:51 | -27.96081 | 13.97041 | 35113 ft | 525 kts | 148° |
| 2026-05-04 08:51 | -28.01938 | 14.01994 | 35089 ft | 525 kts | 147° |
| 2026-05-04 08:52 | -28.07819 | 14.06968 | 35112 ft | 524 kts | 148° |
| 2026-05-04 08:52 | -28.13681 | 14.11941 | 35082 ft | 525 kts | 147° |
| 2026-05-04 08:54 | -28.37186 | 14.31932 | 35081 ft | 528 kts | 147° |
| 2026-05-04 08:55 | -28.43055 | 14.36939 | 35080 ft | 528 kts | 147° |
| 2026-05-04 08:55 | -28.48946 | 14.41976 | 35098 ft | 529 kts | 147° |
| 2026-05-04 09:01 | -29.10917 | 14.95403 | 35083 ft | 532 kts | 147° |
| 2026-05-04 09:01 | -29.17084 | 15.00117 | 35083 ft | 527 kts | 155° |
| 2026-05-04 09:02 | -29.23608 | 15.03833 | 35089 ft | 522 kts | 162° |
| 2026-05-04 09:02 | -29.30306 | 15.07135 | 35089 ft | 521 kts | 163° |
| 2026-05-04 09:03 | -29.36974 | 15.10430 | 35061 ft | 520 kts | 163° |
| 2026-05-04 09:03 | -29.43607 | 15.13746 | 35074 ft | 522 kts | 163° |
| 2026-05-04 09:04 | -29.50290 | 15.17109 | 35060 ft | 522 kts | 163° |
| 2026-05-04 09:04 | -29.56964 | 15.20469 | 35070 ft | 524 kts | 163° |
| 2026-05-04 09:05 | -29.63674 | 15.23858 | 35076 ft | 524 kts | 162° |
| 2026-05-04 09:05 | -29.70379 | 15.27251 | 35081 ft | 523 kts | 163° |
| 2026-05-04 09:06 | -29.77049 | 15.30627 | 35081 ft | 523 kts | 163° |
| 2026-05-04 09:08 | -30.03813 | 15.44226 | 35080 ft | 526 kts | 162° |
| 2026-05-04 09:08 | -30.10565 | 15.47668 | 35072 ft | 527 kts | 162° |
| 2026-05-04 09:09 | -30.17287 | 15.51107 | 35072 ft | 527 kts | 162° |
| 2026-05-04 09:09 | -30.24007 | 15.54545 | 35067 ft | 526 kts | 163° |
| 2026-05-04 09:10 | -30.30730 | 15.57985 | 35059 ft | 528 kts | 162° |
| 2026-05-04 09:10 | -30.37432 | 15.61429 | 35034 ft | 527 kts | 162° |
| 2026-05-04 09:11 | -30.44164 | 15.64886 | 35046 ft | 529 kts | 162° |
| 2026-05-04 09:11 | -30.50898 | 15.68390 | 35044 ft | 530 kts | 160° |
| 2026-05-04 09:12 | -30.57482 | 15.72341 | 35036 ft | 534 kts | 157° |
| 2026-05-04 09:14 | -30.83732 | 15.88700 | 35121 ft | 533 kts | 157° |
| 2026-05-04 09:14 | -30.90321 | 15.92806 | 35056 ft | 533 kts | 156° |
| 2026-05-04 09:15 | -30.96841 | 15.96875 | 35044 ft | 534 kts | 157° |
| 2026-05-04 09:15 | -31.03400 | 16.00972 | 35034 ft | 535 kts | 156° |
| 2026-05-04 09:17 | -31.33044 | 16.19580 | 35025 ft | 537 kts | 156° |
| 2026-05-04 09:18 | -31.39654 | 16.23755 | 35040 ft | 536 kts | 157° |
| 2026-05-04 09:18 | -31.46224 | 16.27904 | 35040 ft | 536 kts | 156° |
| 2026-05-04 09:19 | -31.52801 | 16.32063 | 35036 ft | 537 kts | 156° |
| 2026-05-04 09:19 | -31.59391 | 16.36242 | 35032 ft | 536 kts | 156° |
| 2026-05-04 09:20 | -31.65952 | 16.40408 | 35036 ft | 536 kts | 156° |
| 2026-05-04 09:20 | -31.72543 | 16.44592 | 34818 ft | 537 kts | 156° |
| 2026-05-04 09:21 | -31.75818 | 16.46680 | 34614 ft | 535 kts | 156° |
| 2026-05-04 09:21 | -31.79123 | 16.48790 | 34421 ft | 534 kts | 157° |
| 2026-05-04 09:21 | -31.82372 | 16.50865 | 34225 ft | 532 kts | 157° |
| 2026-05-04 09:21 | -31.85610 | 16.52930 | 34009 ft | 531 kts | 157° |
| 2026-05-04 09:22 | -31.88870 | 16.55012 | 33801 ft | 530 kts | 157° |
| 2026-05-04 09:22 | -31.92129 | 16.57091 | 33585 ft | 531 kts | 158° |
| 2026-05-04 09:22 | -31.95358 | 16.59148 | 33349 ft | 532 kts | 157° |
| 2026-05-04 09:22 | -31.98645 | 16.61247 | 33121 ft | 534 kts | 156° |
| 2026-05-04 09:23 | -32.01912 | 16.63339 | 32903 ft | 533 kts | 156° |
| 2026-05-04 09:23 | -32.05151 | 16.65416 | 32656 ft | 533 kts | 156° |
| 2026-05-04 09:23 | -32.08424 | 16.67522 | 32426 ft | 531 kts | 156° |
| 2026-05-04 09:23 | -32.11685 | 16.69613 | 32182 ft | 532 kts | 156° |
| 2026-05-04 09:25 | -32.34538 | 16.84332 | 30518 ft | 534 kts | 154° |
| 2026-05-04 09:25 | -32.37797 | 16.86441 | 30282 ft | 533 kts | 154° |
| 2026-05-04 09:26 | -32.41045 | 16.88540 | 30049 ft | 535 kts | 154° |
| 2026-05-04 09:26 | -32.44326 | 16.90662 | 29808 ft | 536 kts | 154° |
| 2026-05-04 09:26 | -32.47597 | 16.92784 | 29555 ft | 536 kts | 154° |
| 2026-05-04 09:26 | -32.50894 | 16.94930 | 29299 ft | 537 kts | 154° |
| 2026-05-04 09:27 | -32.54171 | 16.97060 | 29045 ft | 538 kts | 154° |
| 2026-05-04 09:27 | -32.57436 | 16.99177 | 28795 ft | 539 kts | 154° |
| 2026-05-04 09:27 | -32.60760 | 17.01334 | 28538 ft | 540 kts | 154° |
| 2026-05-04 09:27 | -32.64070 | 17.03490 | 28281 ft | 540 kts | 154° |
| 2026-05-04 09:28 | -32.67364 | 17.05637 | 28028 ft | 540 kts | 154° |
| 2026-05-04 09:28 | -32.70663 | 17.07792 | 27773 ft | 541 kts | 154° |
| 2026-05-04 09:28 | -32.73954 | 17.09940 | 27521 ft | 543 kts | 154° |
| 2026-05-04 09:28 | -32.77311 | 17.12132 | 27265 ft | 544 kts | 154° |
| 2026-05-04 09:29 | -32.80618 | 17.14297 | 27013 ft | 544 kts | 154° |
| 2026-05-04 09:29 | -32.83957 | 17.16478 | 26757 ft | 542 kts | 154° |
| 2026-05-04 09:29 | -32.87254 | 17.18638 | 26506 ft | 540 kts | 154° |
| 2026-05-04 09:29 | -32.90539 | 17.20788 | 26255 ft | 539 kts | 154° |
| 2026-05-04 09:30 | -32.93808 | 17.22930 | 26006 ft | 538 kts | 154° |
| 2026-05-04 09:30 | -32.97078 | 17.25082 | 25751 ft | 536 kts | 154° |
| 2026-05-04 09:30 | -33.00368 | 17.27242 | 25505 ft | 534 kts | 154° |
| 2026-05-04 09:30 | -33.03626 | 17.29380 | 25250 ft | 533 kts | 154° |
| 2026-05-04 09:31 | -33.06880 | 17.31523 | 24997 ft | 531 kts | 154° |
| 2026-05-04 09:31 | -33.10079 | 17.33635 | 24749 ft | 528 kts | 154° |
| 2026-05-04 09:31 | -33.13314 | 17.35768 | 24494 ft | 525 kts | 154° |
| 2026-05-04 09:31 | -33.16506 | 17.37867 | 24240 ft | 524 kts | 155° |
| 2026-05-04 09:32 | -33.19720 | 17.39988 | 23997 ft | 523 kts | 154° |
| 2026-05-04 09:32 | -33.22905 | 17.42096 | 23749 ft | 521 kts | 154° |
| 2026-05-04 09:34 | -33.44681 | 17.56562 | 22019 ft | 502 kts | 152° |
| 2026-05-04 09:34 | -33.47638 | 17.58795 | 21780 ft | 501 kts | 148° |
| 2026-05-04 09:34 | -33.50473 | 17.61174 | 21534 ft | 499 kts | 146° |
| 2026-05-04 09:34 | -33.53272 | 17.63597 | 21289 ft | 496 kts | 146° |
| 2026-05-04 09:35 | -33.56094 | 17.66055 | 21041 ft | 493 kts | 146° |
| 2026-05-04 09:35 | -33.58858 | 17.68459 | 20794 ft | 491 kts | 145° |
| 2026-05-04 09:35 | -33.61601 | 17.70838 | 20535 ft | 489 kts | 146° |
| 2026-05-04 09:35 | -33.64369 | 17.73235 | 20247 ft | 487 kts | 146° |
| 2026-05-04 09:37 | -33.83159 | 17.89506 | 17168 ft | 464 kts | 145° |
| 2026-05-04 09:37 | -33.85783 | 17.91785 | 16734 ft | 460 kts | 145° |
| 2026-05-04 09:38 | -33.88346 | 17.94015 | 16282 ft | 456 kts | 145° |
| 2026-05-04 09:38 | -33.90917 | 17.96254 | 15799 ft | 453 kts | 145° |
| 2026-05-04 09:38 | -33.93438 | 17.98449 | 15498 ft | 444 kts | 145° |
| 2026-05-04 09:38 | -33.95941 | 18.00628 | 15319 ft | 432 kts | 145° |
| 2026-05-04 09:39 | -33.98344 | 18.02724 | 15121 ft | 422 kts | 145° |
| 2026-05-04 09:39 | -34.00684 | 18.04767 | 14935 ft | 411 kts | 145° |
| 2026-05-04 09:39 | -34.02973 | 18.06766 | 14734 ft | 402 kts | 145° |
| 2026-05-04 09:39 | -34.05230 | 18.08740 | 14567 ft | 392 kts | 145° |
| 2026-05-04 09:40 | -34.07428 | 18.10662 | 14406 ft | 382 kts | 145° |
| 2026-05-04 09:40 | -34.09438 | 18.12698 | 14178 ft | 375 kts | 128° |
| 2026-05-04 09:40 | -34.10633 | 18.15384 | 13937 ft | 359 kts | 99° |
| 2026-05-04 09:40 | -34.10731 | 18.18265 | 13630 ft | 334 kts | 69° |
| 2026-05-04 09:41 | -34.09822 | 18.20683 | 13365 ft | 307 kts | 46° |
| 2026-05-04 09:42 | -34.03785 | 18.36807 | 11304 ft | 294 kts | 63° |
| 2026-05-04 09:43 | -34.03119 | 18.39128 | 11045 ft | 290 kts | 63° |
| 2026-05-04 09:43 | -34.02463 | 18.41418 | 10766 ft | 287 kts | 63° |
| 2026-05-04 09:43 | -34.02060 | 18.43793 | 10467 ft | 297 kts | 88° |
| 2026-05-04 09:43 | -34.02661 | 18.46161 | 10119 ft | 303 kts | 124° |
| 2026-05-04 09:44 | -34.04189 | 18.47836 | 9773 ft | 297 kts | 159° |
| 2026-05-04 09:44 | -34.06149 | 18.48453 | 9463 ft | 285 kts | 178° |
| 2026-05-04 09:44 | -34.08117 | 18.48790 | 9157 ft | 284 kts | 176° |
| 2026-05-04 09:46 | -34.19505 | 18.54669 | 7662 ft | 218 kts | 97° |
| 2026-05-04 09:46 | -34.19381 | 18.56373 | 7415 ft | 193 kts | 67° |
| 2026-05-04 09:46 | -34.18934 | 18.57856 | 7073 ft | 185 kts | 61° |
| 2026-05-04 09:47 | -34.18443 | 18.59329 | 6627 ft | 183 kts | 62° |
| 2026-05-04 09:47 | -34.18003 | 18.60714 | 6216 ft | 182 kts | 63° |
| 2026-05-04 09:49 | -34.12964 | 18.65425 | 3101 ft | 143 kts | 341° |
| 2026-05-04 09:49 | -34.12005 | 18.65103 | 2673 ft | 142 kts | 341° |
| 2026-05-04 09:49 | -34.11062 | 18.64791 | 2540 ft | 141 kts | 342° |
| 2026-05-04 09:51 | -34.05347 | 18.62971 | 1491 ft | 140 kts | 344° |
| 2026-05-04 09:51 | -34.04401 | 18.62672 | 1307 ft | 139 kts | 344° |
| 2026-05-04 09:51 | -34.03465 | 18.62375 | 1120 ft | 139 kts | 344° |
| 2026-05-04 09:51 | -34.02516 | 18.62074 | 935 ft | 139 kts | 345° |
| 2026-05-04 09:52 | -34.01589 | 18.61780 | 753 ft | 138 kts | 346° |
| 2026-05-04 09:52 | -34.00645 | 18.61480 | 567 ft | 138 kts | 346° |
| 2026-05-04 09:52 | -33.99716 | 18.61185 | 384 ft | 138 kts | 347° |
| 2026-05-04 09:52 | -33.98794 | 18.60891 | 221 ft | 130 kts | 347° |
| 2026-05-04 09:53 | -33.98004 | 18.60642 | 155 ft | 94 kts | 339° |
| 2026-05-04 09:53 | -33.97684 | 18.60549 | 155 ft | 23 kts | 351° |
| 2026-05-04 09:53 | -33.97548 | 18.60513 | 156 ft | 16 kts | 347° |
| 2026-05-04 09:53 | -33.97438 | 18.60475 | 157 ft | 16 kts | 342° |
| 2026-05-04 09:54 | -33.97333 | 18.60437 | 157 ft | 15 kts | 343° |
| 2026-05-04 09:54 | -33.97232 | 18.60399 | 158 ft | 14 kts | 337° |
| 2026-05-04 09:54 | -33.97147 | 18.60330 | 159 ft | 14 kts | 311° |
| 2026-05-04 09:54 | -33.97105 | 18.60228 | 160 ft | 14 kts | 286° |
| 2026-05-04 09:55 | -33.97078 | 18.60111 | 159 ft | 14 kts | 286° |
| 2026-05-04 09:55 | -33.97052 | 18.60003 | 162 ft | 8 kts | 287° |
| 2026-05-04 09:55 | -33.97035 | 18.59962 | 165 ft | 3 kts | 303° |
| 2026-05-04 09:55 | -33.97030 | 18.59950 | 165 ft | 0 kts | 292° |
| 2026-05-04 09:56 | -33.97028 | 18.59890 | 166 ft | 10 kts | 257° |
| 2026-05-04 09:56 | -33.97035 | 18.59856 | 165 ft | 2 kts | 257° |
| 2026-05-04 09:56 | -33.97035 | 18.59853 | 165 ft | 0 kts | 257° |